createdAt,value
2018-07-21T00:04:57.904Z,23.88
2018-07-21T00:13:51.717Z,23.59
2018-07-21T00:25:42.328Z,23.32
2018-07-21T00:34:14.542Z,23.46
2018-07-21T00:36:44.363Z,23.48
2018-07-21T00:39:15.588Z,23.44
2018-07-21T00:41:45.500Z,23.44
2018-07-21T00:44:15.358Z,23.37
2018-07-21T00:46:45.294Z,23.30
2018-07-21T00:49:15.315Z,23.09
2018-07-21T00:51:44.834Z,23.12
2018-07-21T00:54:14.526Z,23.12
2018-07-21T00:56:48.090Z,23.42
2018-07-21T00:59:17.881Z,23.41
2018-07-21T01:01:47.762Z,23.27
2018-07-21T01:04:17.808Z,23.18
2018-07-21T01:06:47.619Z,23.06
2018-07-21T01:09:17.812Z,22.96
2018-07-21T01:11:48.008Z,22.97
2018-07-21T01:14:18.127Z,23.11
2018-07-21T01:16:47.773Z,23.03
2018-07-21T01:19:17.893Z,22.88
2018-07-21T01:21:48.177Z,22.89
2018-07-21T01:24:18.168Z,22.86
2018-07-21T01:26:49.324Z,22.80
2018-07-21T01:29:19.061Z,22.54
2018-07-21T01:31:48.507Z,22.71
2018-07-21T01:34:18.471Z,22.71
2018-07-21T01:36:48.672Z,22.71
2018-07-21T01:39:19.496Z,22.68
2018-07-21T01:41:49.344Z,22.58
2018-07-21T01:44:19.393Z,22.57
2018-07-21T01:46:53.527Z,22.67
2018-07-21T01:49:23.467Z,22.63
2018-07-21T01:51:53.407Z,22.56
2018-07-21T01:54:23.673Z,22.55
2018-07-21T01:56:53.733Z,22.53
2018-07-21T01:59:23.692Z,22.51
2018-07-21T02:01:54.197Z,22.32
2018-07-21T02:04:24.133Z,22.35
2018-07-21T02:06:53.976Z,22.49
2018-07-21T02:09:24.067Z,22.63
2018-07-21T02:11:54.206Z,22.68
2018-07-21T02:14:24.021Z,22.82
2018-07-21T02:16:54.186Z,22.85
2018-07-21T02:19:24.088Z,22.98
2018-07-21T02:21:54.218Z,22.69
2018-07-21T02:24:24.149Z,22.36
2018-07-21T02:26:54.210Z,22.19
2018-07-21T02:29:23.908Z,22.25
2018-07-21T02:31:54.656Z,22.23
2018-07-21T02:34:24.723Z,22.18
2018-07-21T02:36:54.613Z,22.02
2018-07-21T02:39:24.645Z,22.09
2018-07-21T02:41:55.705Z,22.22
2018-07-21T02:44:26.054Z,22.19
2018-07-21T02:46:56.173Z,22.10
2018-07-21T02:49:26.128Z,22.08
2018-07-21T02:51:57.442Z,22.00
2018-07-21T02:54:28.411Z,21.98
2018-07-21T02:56:58.359Z,22.08
2018-07-21T02:59:28.256Z,22.05
2018-07-21T03:01:58.215Z,21.93
2018-07-21T03:04:28.141Z,22.07
2018-07-21T03:06:58.023Z,22.01
2018-07-21T03:09:27.907Z,22.14
2018-07-21T03:12:00.653Z,22.17
2018-07-21T03:14:30.682Z,22.25
2018-07-21T03:17:01.215Z,22.23
2018-07-21T03:19:31.257Z,22.26
2018-07-21T03:22:05.566Z,22.16
2018-07-21T03:24:46.455Z,22.19
2018-07-21T03:27:23.887Z,22.12
2018-07-21T03:30:01.313Z,22.08
2018-07-21T03:32:41.579Z,21.97
2018-07-21T03:35:21.922Z,21.84
2018-07-21T03:37:57.157Z,21.57
2018-07-21T03:40:34.884Z,21.52
2018-07-21T03:43:12.600Z,21.59
2018-07-21T03:45:51.490Z,21.90
2018-07-21T03:48:27.956Z,21.83
2018-07-21T03:51:08.457Z,21.66
2018-07-21T03:53:47.636Z,22.06
2018-07-21T03:56:21.332Z,22.25
2018-07-21T03:58:59.634Z,22.36
2018-07-21T04:01:35.838Z,23.06
2018-07-21T04:04:17.112Z,23.54
2018-07-21T04:06:55.770Z,24.03
2018-07-21T04:09:32.190Z,24.12
2018-07-21T04:17:44.907Z,23.89
2018-07-21T04:20:22.544Z,24.03
2018-07-21T04:23:03.112Z,24.00
2018-07-21T04:25:38.339Z,23.99
2018-07-21T04:28:24.171Z,24.10
2018-07-21T04:31:03.121Z,24.32
2018-07-21T04:33:40.430Z,24.48
2018-07-21T04:36:18.243Z,24.65
2018-07-21T04:38:53.578Z,24.38
2018-07-21T04:41:38.152Z,24.10
2018-07-21T04:44:16.957Z,24.27
2018-07-21T04:46:58.357Z,23.77
2018-07-21T04:49:42.764Z,23.75
2018-07-21T04:52:27.836Z,24.03
2018-07-21T04:55:06.073Z,24.14
2018-07-21T04:57:43.651Z,24.72
2018-07-21T05:00:25.131Z,24.93
2018-07-21T05:03:03.526Z,25.11
2018-07-21T05:05:42.094Z,25.13
2018-07-21T05:08:22.160Z,25.01
2018-07-21T05:10:59.547Z,24.98
2018-07-21T05:13:37.501Z,25.08
2018-07-21T05:16:17.697Z,25.18
2018-07-21T05:18:58.884Z,25.29
2018-07-21T05:21:35.215Z,25.69
2018-07-21T05:24:12.805Z,25.82
2018-07-21T05:26:57.542Z,25.73
2018-07-21T05:29:32.928Z,25.93
2018-07-21T05:32:13.032Z,26.01
2018-07-21T05:34:48.411Z,26.19
2018-07-21T05:40:12.229Z,25.94
2018-07-21T05:42:54.860Z,26.03
2018-07-21T05:45:34.867Z,26.26
2018-07-21T05:48:11.009Z,26.17
2018-07-21T05:50:53.695Z,26.18
2018-07-21T05:53:28.209Z,26.43
2018-07-21T05:56:09.589Z,26.63
2018-07-21T05:58:44.495Z,26.95
2018-07-21T06:04:16.122Z,27.60
2018-07-21T06:09:37.965Z,28.18
2018-07-21T06:12:13.307Z,27.92
2018-07-21T06:14:53.087Z,27.38
2018-07-21T06:17:31.146Z,27.19
2018-07-21T06:22:54.240Z,28.20
2018-07-21T06:25:47.826Z,28.34
2018-07-21T06:28:26.685Z,28.24
2018-07-21T06:31:04.554Z,28.45
2018-07-21T06:33:43.959Z,28.52
2018-07-21T06:36:18.902Z,28.71
2018-07-21T06:38:55.208Z,28.72
2018-07-21T06:41:37.468Z,28.66
2018-07-21T06:44:19.877Z,28.43
2018-07-21T06:46:57.464Z,28.55
2018-07-21T06:49:41.180Z,28.68
2018-07-21T06:52:21.512Z,28.86
2018-07-21T06:55:01.956Z,29.49
2018-07-21T06:57:41.587Z,29.93
2018-07-21T07:00:19.178Z,29.97
2018-07-21T07:05:41.953Z,30.16
2018-07-21T07:08:17.721Z,30.30
2018-07-21T07:13:39.091Z,30.29
2018-07-21T07:16:14.333Z,30.04
2018-07-21T07:18:53.553Z,30.25
2018-07-21T07:21:33.150Z,30.42
2018-07-21T07:24:17.910Z,30.47
2018-07-21T07:27:01.652Z,30.35
2018-07-21T07:29:42.334Z,30.50
2018-07-21T07:32:20.413Z,30.33
2018-07-21T07:37:39.200Z,30.36
2018-07-21T07:40:14.840Z,30.26
2018-07-21T07:42:55.670Z,30.44
2018-07-21T07:45:32.928Z,30.81
2018-07-21T07:48:09.799Z,30.73
2018-07-21T07:50:51.860Z,31.26
2018-07-21T07:53:29.990Z,31.16
2018-07-21T07:56:11.091Z,31.20
2018-07-21T08:01:29.953Z,31.65
2018-07-21T08:04:07.362Z,31.73
2018-07-21T08:06:48.480Z,31.16
2018-07-21T08:09:29.203Z,30.44
2018-07-21T08:12:07.400Z,30.69
2018-07-21T08:14:47.083Z,30.54
2018-07-21T08:17:27.019Z,30.59
2018-07-21T08:20:07.144Z,30.67
2018-07-21T08:22:50.047Z,30.81
2018-07-21T08:25:25.908Z,31.01
2018-07-21T08:30:58.369Z,30.96
2018-07-21T08:33:41.074Z,30.79
2018-07-21T08:39:17.914Z,31.43
2018-07-21T08:42:02.031Z,31.62
2018-07-21T08:44:46.616Z,31.83
2018-07-21T08:47:32.893Z,31.98
2018-07-21T08:50:11.177Z,31.76
2018-07-21T08:52:53.289Z,31.35
2018-07-21T08:58:17.721Z,31.70
2018-07-21T09:00:57.148Z,31.63
2018-07-21T09:03:36.314Z,31.74
2018-07-21T09:06:22.150Z,31.52
2018-07-21T09:11:43.927Z,31.59
2018-07-21T09:14:19.397Z,31.67
2018-07-21T09:17:06.920Z,31.34
2018-07-21T09:19:47.315Z,31.37
2018-07-21T09:22:25.318Z,31.56
2018-07-21T09:25:05.059Z,31.46
2018-07-21T09:27:47.829Z,30.99
2018-07-21T09:30:25.818Z,30.95
2018-07-21T09:33:09.440Z,30.67
2018-07-21T09:35:52.657Z,30.55
2018-07-21T09:38:35.529Z,30.27
2018-07-21T09:41:20.436Z,30.04
2018-07-21T09:49:35.593Z,28.23
2018-07-21T09:52:18.894Z,28.10
2018-07-21T09:55:04.582Z,28.49
2018-07-21T09:57:40.536Z,28.97
2018-07-21T10:00:21.928Z,29.08
2018-07-21T10:03:00.868Z,29.61
2018-07-21T10:05:39.950Z,30.68
2018-07-21T10:08:14.488Z,31.11
2018-07-21T10:10:54.866Z,31.04
2018-07-21T10:13:33.099Z,31.26
2018-07-21T10:16:14.048Z,31.30
2018-07-21T10:18:54.542Z,32.13
2018-07-21T10:21:31.832Z,32.51
2018-07-21T10:24:15.152Z,32.64
2018-07-21T10:29:44.262Z,32.83
2018-07-21T10:32:23.190Z,32.61
2018-07-21T10:37:48.289Z,32.58
2018-07-21T10:40:26.969Z,33.14
2018-07-21T10:43:10.366Z,33.31
2018-07-21T10:48:40.561Z,33.68
2018-07-21T10:51:21.023Z,33.87
2018-07-21T10:54:05.741Z,33.77
2018-07-21T10:56:40.985Z,32.96
2018-07-21T10:59:23.132Z,32.79
2018-07-21T11:02:01.384Z,33.32
2018-07-21T11:04:48.670Z,33.50
2018-07-21T11:07:24.073Z,32.88
2018-07-21T11:10:07.989Z,32.96
2018-07-21T11:12:45.857Z,33.26
2018-07-21T11:15:26.748Z,33.63
2018-07-21T11:18:08.699Z,34.03
2018-07-21T11:20:47.274Z,34.15
2018-07-21T11:23:28.706Z,34.32
2018-07-21T11:28:54.710Z,34.69
2018-07-21T11:31:36.569Z,34.09
2018-07-21T11:34:18.164Z,33.86
2018-07-21T11:36:58.579Z,34.16
2018-07-21T11:39:36.316Z,34.60
2018-07-21T11:42:13.790Z,35.14
2018-07-21T11:44:50.515Z,35.26
2018-07-21T11:47:39.945Z,35.45
2018-07-21T11:50:18.630Z,34.83
2018-07-21T11:52:58.872Z,33.80
2018-07-21T11:55:37.659Z,33.34
2018-07-21T11:58:16.675Z,33.43
2018-07-21T12:00:57.428Z,33.24
2018-07-21T12:03:32.828Z,33.87
2018-07-21T12:06:11.641Z,34.03
2018-07-21T12:08:53.277Z,34.54
2018-07-21T12:11:34.319Z,34.82
2018-07-21T12:14:13.932Z,34.85
2018-07-21T12:19:40.767Z,34.54
2018-07-21T12:22:27.840Z,34.28
2018-07-21T12:25:04.359Z,33.55
2018-07-21T12:27:46.944Z,33.27
2018-07-21T12:30:34.039Z,33.60
2018-07-21T12:33:15.165Z,33.53
2018-07-21T12:35:59.953Z,32.79
2018-07-21T12:38:37.926Z,32.24
2018-07-21T12:41:16.975Z,32.14
2018-07-21T12:43:59.816Z,31.80
2018-07-21T12:46:39.405Z,31.20
2018-07-21T12:52:15.423Z,29.96
2018-07-21T12:54:51.884Z,30.08
2018-07-21T12:57:24.192Z,30.34
2018-07-21T13:00:03.865Z,30.30
2018-07-21T13:02:49.126Z,30.01
2018-07-21T13:05:32.506Z,28.97
2018-07-21T13:08:16.123Z,28.96
2018-07-21T13:10:55.892Z,29.07
2018-07-21T13:13:38.893Z,28.96
2018-07-21T13:16:16.188Z,28.91
2018-07-21T13:18:55.311Z,28.54
2018-07-21T13:21:34.811Z,28.26
2018-07-21T13:24:12.633Z,28.53
2018-07-21T13:26:49.473Z,28.44
2018-07-21T13:29:26.076Z,28.38
2018-07-21T13:32:11.144Z,28.76
2018-07-21T13:34:49.704Z,28.81
2018-07-21T13:37:30.905Z,29.05
2018-07-21T13:40:10.817Z,29.03
2018-07-21T13:42:53.933Z,28.97
2018-07-21T13:45:28.525Z,28.94
2018-07-21T13:48:07.407Z,29.38
2018-07-21T13:50:51.374Z,29.68
2018-07-21T13:53:28.571Z,29.64
2018-07-21T13:56:11.308Z,29.47
2018-07-21T14:01:43.405Z,29.63
2018-07-21T14:04:24.284Z,29.47
2018-07-21T14:07:09.677Z,29.06
2018-07-21T14:09:53.345Z,28.09
2018-07-21T14:12:30.498Z,27.30
2018-07-21T14:15:13.130Z,27.06
2018-07-21T14:20:45.390Z,26.26
2018-07-21T14:23:23.243Z,26.69
2018-07-21T14:26:00.311Z,26.92
2018-07-21T14:28:38.908Z,26.89
2018-07-21T14:31:21.180Z,26.34
2018-07-21T14:33:56.476Z,26.22
2018-07-21T14:36:34.752Z,26.35
2018-07-21T14:39:20.310Z,26.79
2018-07-21T14:42:00.946Z,26.96
2018-07-21T14:44:39.190Z,26.83
2018-07-21T14:47:20.622Z,26.74
2018-07-21T14:49:58.935Z,26.94
2018-07-21T14:52:41.253Z,27.03
2018-07-21T14:55:24.179Z,27.04
2018-07-21T14:58:09.255Z,27.07
2018-07-21T15:00:46.470Z,27.11
2018-07-21T15:03:27.017Z,27.27
2018-07-21T15:06:05.813Z,27.37
2018-07-21T15:08:47.013Z,27.58
2018-07-21T15:11:20.840Z,27.48
2018-07-21T15:14:00.058Z,27.22
2018-07-21T15:16:38.416Z,27.05
2018-07-21T15:19:19.361Z,26.89
2018-07-21T15:21:58.397Z,26.78
2018-07-21T15:27:45.980Z,27.00
2018-07-21T15:30:26.383Z,26.95
2018-07-21T15:33:07.227Z,26.96
2018-07-21T15:35:46.931Z,26.70
2018-07-21T15:38:32.128Z,26.68
2018-07-21T15:41:08.703Z,26.75
2018-07-21T15:43:50.102Z,27.18
2018-07-21T15:46:35.230Z,27.09
2018-07-21T15:49:15.038Z,27.15
2018-07-21T15:51:50.805Z,27.21
2018-07-21T15:54:35.893Z,26.97
2018-07-21T15:57:17.832Z,26.61
2018-07-21T16:00:02.854Z,26.40
2018-07-21T16:02:44.261Z,26.48
2018-07-21T16:05:23.227Z,26.66
2018-07-21T16:08:03.096Z,27.10
2018-07-21T16:10:37.582Z,27.31
2018-07-21T16:13:19.930Z,27.22
2018-07-21T16:15:56.205Z,27.48
2018-07-21T16:18:30.818Z,27.47
2018-07-21T16:21:12.683Z,27.34
2018-07-21T16:23:51.793Z,27.12
2018-07-21T16:26:31.311Z,27.19
2018-07-21T16:29:08.573Z,26.98
2018-07-21T16:31:48.581Z,27.13
2018-07-21T16:34:35.748Z,27.18
2018-07-21T16:37:17.566Z,26.78
2018-07-21T16:40:00.591Z,26.82
2018-07-21T16:42:37.475Z,26.70
2018-07-21T16:45:19.029Z,26.76
2018-07-21T16:47:56.792Z,26.69
2018-07-21T16:50:39.938Z,26.64
2018-07-21T16:53:16.830Z,26.54
2018-07-21T16:56:00.167Z,26.60
2018-07-21T16:58:39.566Z,26.81
2018-07-21T17:01:17.979Z,26.13
2018-07-21T17:04:03.223Z,26.26
2018-07-21T17:06:38.649Z,26.76
2018-07-21T17:09:14.478Z,26.75
2018-07-21T17:11:56.437Z,26.37
2018-07-21T17:14:32.509Z,26.28
2018-07-21T17:17:19.897Z,25.92
2018-07-21T17:19:57.972Z,25.97
2018-07-21T17:22:34.459Z,26.04
2018-07-21T17:25:15.141Z,25.80
2018-07-21T17:27:56.085Z,25.57
2018-07-21T17:30:35.571Z,25.39
2018-07-21T17:33:17.409Z,25.29
2018-07-21T17:36:01.695Z,25.07
2018-07-21T17:41:35.412Z,24.74
2018-07-21T17:44:18.864Z,24.74
2018-07-21T17:46:56.925Z,24.67
2018-07-21T17:49:32.326Z,24.56
2018-07-21T17:52:05.940Z,24.66
2018-07-21T17:54:46.182Z,24.71
2018-07-21T17:57:25.180Z,24.67
2018-07-21T18:00:07.538Z,24.54
2018-07-21T18:02:49.610Z,24.60
2018-07-21T18:05:36.083Z,24.49
2018-07-21T18:08:20.914Z,24.76
2018-07-21T18:10:59.957Z,25.10
2018-07-21T18:13:34.823Z,25.19
2018-07-21T18:16:11.082Z,25.45
2018-07-21T18:18:47.030Z,25.52
2018-07-21T18:24:17.693Z,24.92
2018-07-21T18:26:59.190Z,24.75
2018-07-21T18:29:39.164Z,24.95
2018-07-21T18:32:15.770Z,25.18
2018-07-21T18:35:00.797Z,25.11
2018-07-21T18:37:34.817Z,24.57
2018-07-21T18:40:18.045Z,24.57
2018-07-21T18:42:58.181Z,24.83
2018-07-21T18:45:42.428Z,24.96
2018-07-21T18:48:21.464Z,24.98
2018-07-21T18:53:44.829Z,24.75
2018-07-21T18:59:13.128Z,24.59
2018-07-21T19:01:56.060Z,24.57
2018-07-21T19:04:35.591Z,24.74
2018-07-21T19:07:08.575Z,24.69
2018-07-21T19:09:46.189Z,24.74
2018-07-21T19:12:34.242Z,24.51
2018-07-21T19:15:15.630Z,24.70
2018-07-21T19:17:55.433Z,24.43
2018-07-21T19:20:36.755Z,24.49
2018-07-21T19:23:19.169Z,24.74
2018-07-21T19:28:51.333Z,25.24
2018-07-21T19:31:35.787Z,25.23
2018-07-21T19:34:15.396Z,25.20
2018-07-21T19:36:54.953Z,25.23
2018-07-21T19:39:36.063Z,25.22
2018-07-21T19:42:14.069Z,24.90
2018-07-21T19:44:51.159Z,24.81
2018-07-21T19:47:30.295Z,24.87
2018-07-21T19:50:10.956Z,24.71
2018-07-21T19:52:53.652Z,24.69
2018-07-21T19:55:34.018Z,24.57
2018-07-21T20:03:34.858Z,24.50
2018-07-21T20:06:14.637Z,24.80
2018-07-21T20:08:56.205Z,25.11
2018-07-21T20:11:40.642Z,24.98
2018-07-21T20:14:19.409Z,24.91
2018-07-21T20:17:02.356Z,24.74
2018-07-21T20:19:40.359Z,24.51
2018-07-21T20:22:17.074Z,24.60
2018-07-21T20:25:01.352Z,24.54
2018-07-21T20:27:43.286Z,24.46
2018-07-21T20:30:18.554Z,24.16
2018-07-21T20:32:57.304Z,24.33
2018-07-21T20:35:34.737Z,24.39
2018-07-21T20:38:15.567Z,24.43
2018-07-21T20:40:54.620Z,24.55
2018-07-21T20:43:33.599Z,24.94
2018-07-21T20:46:18.116Z,24.74
2018-07-21T20:49:01.518Z,24.91
2018-07-21T20:51:41.942Z,24.78
2018-07-21T20:54:19.642Z,24.77
2018-07-21T20:59:44.704Z,24.58
2018-07-21T21:02:28.219Z,24.54
2018-07-21T21:05:09.650Z,24.36
2018-07-21T21:07:42.999Z,24.11
2018-07-21T21:10:21.306Z,24.42
2018-07-21T21:13:02.022Z,24.51
2018-07-21T21:15:43.588Z,24.58
2018-07-21T21:18:18.806Z,24.88
2018-07-21T21:23:41.181Z,25.07
2018-07-21T21:26:22.490Z,24.96
2018-07-21T21:29:02.873Z,24.89
2018-07-21T21:31:38.705Z,24.84
2018-07-21T21:34:20.855Z,24.88
2018-07-21T21:36:58.569Z,24.81
2018-07-21T21:39:33.521Z,24.92
2018-07-21T21:42:14.965Z,24.63
2018-07-21T21:45:00.723Z,24.43
2018-07-21T21:47:38.690Z,24.30
2018-07-21T21:50:18.840Z,24.03
2018-07-21T21:53:00.774Z,24.08
2018-07-21T21:55:39.610Z,24.33
2018-07-21T21:58:18.887Z,24.42
2018-07-21T22:01:12.482Z,24.45
2018-07-21T22:03:47.746Z,24.54
2018-07-21T22:06:25.132Z,24.52
2018-07-21T22:09:01.499Z,24.50
2018-07-21T22:11:44.950Z,24.38
2018-07-21T22:14:25.267Z,24.13
2018-07-21T22:17:03.599Z,24.35
2018-07-21T22:22:27.117Z,24.32
2018-07-21T22:25:08.715Z,24.47
2018-07-21T22:27:53.656Z,24.33
2018-07-21T22:30:35.369Z,24.29
2018-07-21T22:33:11.930Z,24.12
2018-07-21T22:35:58.214Z,24.37
2018-07-21T22:38:40.231Z,24.47
2018-07-21T22:41:18.867Z,24.12
2018-07-21T22:43:59.428Z,24.38
2018-07-21T22:46:38.075Z,24.34
2018-07-21T22:49:13.489Z,24.59
2018-07-21T22:51:55.465Z,24.72
2018-07-21T22:54:34.237Z,24.53
2018-07-21T22:57:21.695Z,24.16
2018-07-21T23:00:06.560Z,23.82
2018-07-21T23:02:47.368Z,23.71
2018-07-21T23:05:34.596Z,24.23
2018-07-21T23:08:17.302Z,24.58
2018-07-21T23:10:59.692Z,24.51
2018-07-21T23:13:43.664Z,24.64
2018-07-21T23:16:22.894Z,24.87
2018-07-21T23:19:00.509Z,25.15
2018-07-21T23:21:41.110Z,24.75
2018-07-21T23:24:23.157Z,24.65
2018-07-21T23:27:05.462Z,24.39
2018-07-21T23:29:45.537Z,23.90
2018-07-21T23:32:31.668Z,23.56
2018-07-21T23:35:09.701Z,23.89
2018-07-21T23:37:52.327Z,23.81
2018-07-21T23:40:36.166Z,23.70
2018-07-21T23:45:59.861Z,23.78
2018-07-21T23:48:36.821Z,23.90
2018-07-21T23:51:13.825Z,23.82
2018-07-21T23:53:52.944Z,23.56
2018-07-21T23:56:34.757Z,23.44
2018-07-21T23:59:11.794Z,23.51
